Maastricht, Netherlands

11:52 AM CEST on April 25, 2017 (GMT +0200)
Bunde | | Change Station

Elev 216 ft 50.89 °N, 5.74 °E | Updated 7 minutes ago

Mostly Cloudy
Mostly Cloudy
46.0 °F
Feels Like 41 °F
N
9.0
Wind Variable Wind from West
Gusts 18.0 mph

Today
High -- | Low -- °F
--% Chance of Precip.
Yesterday
High -- | Low -- °F
Precip. -- in
Pressure 29.80 in
Visibility 6.2 miles
Clouds Few 1600 ft
Scattered Clouds 2600 ft
Windchill 41 °F
Dew Point 33 °F
Humidity 60%
Rainfall 0.03 in
Snow Depth Not available.
6:21 AM 8:48 PM
Waning Crescent, 2% visible
SPECI EHEH 250932Z AUTO 27013KT 230V330 9999 FEW016CB SCT026 07/03 Q1009 BLU 27010KT 9999 FEW028 SCT035 TEMPO 30015G25KT FEW010 SCT020CB BKN025
Pressure 29.80 in
Visibility 6.2 miles
Clouds Few 1600 ft
Scattered Clouds 2600 ft
Windchill 41 °F
Dew Point 33 °F
Humidity 60%
Rainfall 0.03 in
Snow Depth Not available.
6:21 AM 8:48 PM
Waning Crescent, 2% visible
SPECI EHEH 250932Z AUTO 27013KT 230V330 9999 FEW016CB SCT026 07/03 Q1009 BLU 27010KT 9999 FEW028 SCT035 TEMPO 30015G25KT FEW010 SCT020CB BKN025

Get Severe Weather Alerts

Thanks for signing up!

Be on the lookout for a verification email in your inbox.

You'll start receiving the daily forecast at 8 AM.

×

10-Day Weather Forecast

×

Almanac

Astronomy

Apr. 25, 2017 Rise Set
Actual Time
Civil Twilight
Nautical Twilight
Astronomical Twilight
Moon
Length of Visible Light
Length of Day
Tomorrow will be .
, % of the Moon is Illuminated

Today's Extremes

Country Highs Country Lows

Community

WunderPhotos

WunderBlog® & News

Nearby

Air Quality

  Air Quality AQ Index Pollutant
Not available.

Snow Depth

Station Depth Elevation

Earthquake Activity

City Distance Mag. Time & Date
Minimum magnitude displayed is 2.5.

Coastal Water Temperatures

Place Temperature

Stations

Nearby Weather Stations

Station Location Temp. Windchill Dew Point Humidity Wind Precip. Elev Updated Type